Horatio, South Carolina
Current Conditions -  °F | °C
As of 6:23 PM on Tuesday 25 Nov 2014 (Local Time) from KSSC Reporting Station
Broken Clouds Broken Clouds  
Wind Chill: 15°   Ceiling: 700
Heat Index: 15°   Visibility: 10mi
Dew Point: 14°   Wind: 0mph
Humidity: 94%   Direction: NA
Pressure: 30.01"   Gusts: NA
Location:  34.02°N, 80.57°W
Report Text: KSSC 252323Z AUTO 00000KT 10SM BKN007 BKN110 15/14 A3001 RMK AO2 CIG 006V110 $
Loading
Personal Weather Stations






























Interactive Weather Map New forecast layout! Learn more

10-Day Weather Forecast

Advertisements
Track Severe Weather on mobile